Time;durP1;ratioP1;P1;durP2;ratioP2;P2;SDS_P1;SDS_P2;PMS_P1;PMS_P2;Temp;Humidity;BMP_temperature;BMP_pressure;BME280_temperature;BME280_humidity;BME280_pressure;Samples;Min_cycle;Max_cycle;Signal;HPM_P1;HPM_P2
2023/10/15 00:00:58;;;;;;;62.88;59.35;;;15.30;99.90;;;;;;4954618;28;20063;-69
2023/10/15 00:03:24;;;;;;;75.35;71.10;;;15.30;99.90;;;;;;4938219;29;20461;-69
2023/10/15 00:05:50;;;;;;;80.07;75.78;;;15.30;99.90;;;;;;4955083;28;20035;-69
2023/10/15 00:08:16;;;;;;;83.55;79.00;;;15.30;99.90;;;;;;4954886;29;20701;-69
2023/10/15 00:10:42;;;;;;;56.15;53.20;;;15.20;99.90;;;;;;4954881;28;20051;-69
2023/10/15 00:13:10;;;;;;;81.60;77.15;;;15.00;99.90;;;;;;4955151;29;20027;-69
2023/10/15 00:15:39;;;;;;;44.15;41.63;;;15.00;99.90;;;;;;4929422;28;1157973;-69
2023/10/15 00:18:07;;;;;;;38.55;36.45;;;15.00;99.90;;;;;;4959067;28;20031;-69
2023/10/15 00:20:38;;;;;;;68.97;65.13;;;15.00;99.90;;;;;;4971702;28;20054;-69
2023/10/15 00:23:06;;;;;;;51.20;48.25;;;15.00;99.90;;;;;;4954661;28;20055;-69
2023/10/15 00:25:47;;;;;;;85.65;80.85;;;14.90;99.90;;;;;;4955613;28;20042;-69
2023/10/15 00:28:15;;;;;;;111.50;105.57;;;14.80;99.90;;;;;;4940632;29;20034;-69
2023/10/15 00:30:42;;;;;;;61.65;57.83;;;14.80;99.90;;;;;;4954557;28;20066;-68
2023/10/15 00:33:11;;;;;;;48.75;45.65;;;14.80;99.90;;;;;;4955855;29;20034;-69
2023/10/15 00:35:37;;;;;;;49.50;46.20;;;14.90;99.90;;;;;;4955328;28;20408;-69
2023/10/15 00:38:19;;;;;;;45.58;43.00;;;14.90;99.90;;;;;;4955365;29;20042;-69
2023/10/15 00:41:00;;;;;;;48.75;45.95;;;14.90;99.90;;;;;;4940154;28;20062;-69
2023/10/15 00:43:27;;;;;;;43.90;41.20;;;14.90;99.90;;;;;;4955413;28;20067;-71
2023/10/15 00:45:53;;;;;;;47.13;44.40;;;14.90;99.90;;;;;;4952701;28;20404;-70
2023/10/15 00:48:28;;;;;;;57.13;53.88;;;14.90;99.90;;;;;;4955177;28;20054;-70
2023/10/15 00:50:55;;;;;;;51.70;48.70;;;14.90;99.90;;;;;;4954780;28;20070;-71
2023/10/15 00:53:23;;;;;;;50.10;47.38;;;14.90;99.90;;;;;;4966575;28;20050;-71
2023/10/15 00:55:53;;;;;;;63.28;59.75;;;14.80;99.90;;;;;;4968573;28;20047;-70
2023/10/15 01:03:50;;;;;;;49.45;46.20;;;14.80;99.90;;;;;;4934324;29;20043;-70
2023/10/15 01:06:35;;;;;;;48.58;45.72;;;14.80;99.90;;;;;;4941407;29;20080;-70
2023/10/15 01:09:08;;;;;;;67.90;64.03;;;14.80;99.90;;;;;;4952292;28;20043;-71
2023/10/15 01:11:44;;;;;;;55.28;51.90;;;14.80;99.90;;;;;;4951731;28;20050;-71
2023/10/15 01:14:11;;;;;;;59.83;56.30;;;14.70;99.90;;;;;;4952924;29;20424;-70
2023/10/15 01:16:38;;;;;;;70.65;66.80;;;14.60;99.90;;;;;;4951456;28;20048;-70
2023/10/15 01:21:47;;;;;;;47.97;45.08;;;14.40;99.90;;;;;;4949050;28;20051;-70
2023/10/15 01:24:18;;;;;;;48.00;45.35;;;14.40;99.90;;;;;;4951416;29;20039;-70
2023/10/15 01:26:57;;;;;;;38.33;35.90;;;14.50;99.90;;;;;;4946617;29;20055;-71
2023/10/15 01:29:23;;;;;;;58.33;55.03;;;14.50;99.90;;;;;;4952125;29;20519;-70
2023/10/15 01:31:58;;;;;;;53.05;49.67;;;14.40;99.90;;;;;;4951374;29;20027;-70
2023/10/15 01:34:27;;;;;;;79.72;74.65;;;14.30;99.90;;;;;;4951518;29;20051;-70
2023/10/15 01:36:59;;;;;;;59.78;56.50;;;14.30;99.90;;;;;;4951252;29;20039;-70
2023/10/15 01:39:38;;;;;;;46.45;43.50;;;14.20;99.90;;;;;;4952069;29;20055;-70
2023/10/15 01:42:06;;;;;;;53.25;50.10;;;14.20;99.90;;;;;;4972759;28;20050;-70
2023/10/15 01:44:47;;;;;;;53.72;50.80;;;14.20;99.90;;;;;;4973890;28;20372;-71
2023/10/15 01:47:14;;;;;;;48.70;45.97;;;14.20;99.90;;;;;;4956695;28;20543;-71
2023/10/15 01:49:41;;;;;;;53.25;49.92;;;14.10;99.90;;;;;;4954198;28;20054;-71
2023/10/15 01:52:12;;;;;;;58.22;54.70;;;14.10;99.90;;;;;;4953826;28;20047;-69
2023/10/15 01:54:44;;;;;;;48.15;45.10;;;14.00;99.90;;;;;;4954368;29;20031;-69
2023/10/15 01:57:14;;;;;;;47.13;44.22;;;13.90;99.90;;;;;;4953114;28;20515;-69
2023/10/15 01:59:45;;;;;;;50.38;47.53;;;13.90;99.90;;;;;;4954450;29;20042;-69
2023/10/15 02:02:17;;;;;;;57.37;54.03;;;13.90;99.90;;;;;;4969753;28;20041;-69
2023/10/15 02:04:44;;;;;;;37.78;35.50;;;13.90;99.90;;;;;;4973274;28;20030;-69
2023/10/15 02:07:20;;;;;;;41.30;38.85;;;13.90;99.90;;;;;;4955856;28;20031;-69
2023/10/15 02:09:46;;;;;;;44.30;41.22;;;13.80;99.90;;;;;;4954542;28;20408;-69
2023/10/15 02:12:13;;;;;;;39.90;37.70;;;13.80;99.90;;;;;;4953943;28;20039;-69
2023/10/15 02:14:42;;;;;;;45.03;42.42;;;13.80;99.90;;;;;;4954369;29;20032;-69
2023/10/15 02:17:33;;;;;;;41.70;39.45;;;13.80;99.90;;;;;;4952944;28;20047;-69
2023/10/15 02:19:55;;;;;;;51.00;48.03;;;13.70;99.90;;;;;;4971372;28;20542;-69
2023/10/15 02:22:21;;;;;;;48.75;46.00;;;13.70;99.90;;;;;;4954265;28;20047;-69
2023/10/15 02:24:47;;;;;;;52.67;49.80;;;13.50;99.90;;;;;;4953931;29;20099;-69
2023/10/15 02:27:23;;;;;;;48.15;45.20;;;13.40;99.90;;;;;;4950304;28;20373;-69
2023/10/15 02:29:52;;;;;;;44.97;42.33;;;13.40;99.90;;;;;;4954151;29;20042;-69
2023/10/15 02:32:22;;;;;;;40.30;38.08;;;13.50;99.90;;;;;;4970200;28;20049;-69
2023/10/15 02:34:50;;;;;;;39.55;37.17;;;13.60;99.90;;;;;;4973014;28;20046;-69
2023/10/15 02:37:23;;;;;;;39.47;37.03;;;13.60;99.90;;;;;;4955840;28;20048;-69
2023/10/15 02:39:52;;;;;;;37.97;35.67;;;13.50;99.90;;;;;;4954047;28;20487;-69
2023/10/15 02:42:19;;;;;;;44.15;41.50;;;13.50;99.90;;;;;;4952166;28;20047;-69
2023/10/15 02:44:50;;;;;;;46.42;43.85;;;13.40;99.90;;;;;;4953971;29;20023;-69
2023/10/15 02:47:28;;;;;;;45.40;42.70;;;13.40;99.90;;;;;;4936569;28;20493;-69
2023/10/15 02:50:04;;;;;;;47.20;44.55;;;13.40;99.90;;;;;;4953827;29;20046;-69
2023/10/15 02:52:35;;;;;;;52.05;48.92;;;13.30;99.90;;;;;;4953745;28;20353;-69
2023/10/15 02:55:11;;;;;;;49.65;46.75;;;13.30;99.90;;;;;;4953593;28;20412;-69
2023/10/15 02:57:41;;;;;;;50.00;46.67;;;13.30;99.90;;;;;;4972043;28;20042;-69
2023/10/15 03:00:18;;;;;;;45.58;43.03;;;13.30;99.90;;;;;;4972620;28;20380;-69
2023/10/15 03:02:44;;;;;;;46.97;44.35;;;13.30;99.90;;;;;;4952426;28;20056;-70
2023/10/15 03:05:14;;;;;;;49.35;46.40;;;13.30;99.90;;;;;;4953848;28;20042;-70
2023/10/15 03:07:42;;;;;;;44.90;42.30;;;13.20;99.90;;;;;;4973217;28;20477;-70
2023/10/15 03:10:21;;;;;;;42.72;40.28;;;13.20;99.90;;;;;;4976184;28;20055;-70
2023/10/15 03:12:48;;;;;;;41.38;38.88;;;13.30;99.90;;;;;;4976461;28;20039;-70
2023/10/15 03:15:15;;;;;;;42.63;39.90;;;13.20;99.90;;;;;;4974966;28;20134;-70
2023/10/15 03:17:43;;;;;;;42.00;38.92;;;13.10;99.90;;;;;;4956869;28;20404;-71
2023/10/15 03:22:45;;;;;;;38.30;36.17;;;13.10;99.90;;;;;;4979126;28;20031;-71
2023/10/15 03:25:14;;;;;;;42.33;39.72;;;13.00;99.90;;;;;;4975641;28;20034;-70
2023/10/15 03:27:40;;;;;;;43.53;41.13;;;13.00;99.90;;;;;;4976313;28;20107;-70
2023/10/15 03:30:09;;;;;;;43.45;40.67;;;13.10;99.90;;;;;;4975517;28;20038;-71
2023/10/15 03:32:41;;;;;;;46.55;43.65;;;13.00;99.90;;;;;;4976254;28;20027;-70
2023/10/15 03:35:16;;;;;;;47.50;44.67;;;12.90;99.90;;;;;;4975802;28;20035;-71
2023/10/15 03:37:48;;;;;;;45.25;42.72;;;12.90;99.90;;;;;;4974853;28;20051;-70
2023/10/15 03:43:06;;;;;;;39.90;37.60;;;12.90;99.90;;;;;;4963220;28;20046;-70
2023/10/15 03:45:33;;;;;;;37.00;34.70;;;13.00;99.90;;;;;;4956031;28;20428;-70
2023/10/15 03:48:00;;;;;;;37.28;35.08;;;12.90;99.90;;;;;;4956582;28;20046;-70
2023/10/15 03:50:29;;;;;;;41.22;38.60;;;12.90;99.90;;;;;;4956143;28;20051;-70
2023/10/15 03:52:58;;;;;;;41.03;38.30;;;12.90;99.90;;;;;;4956113;28;20058;-70
2023/10/15 03:55:24;;;;;;;42.45;39.90;;;12.90;99.90;;;;;;4955800;28;20054;-70
2023/10/15 03:57:52;;;;;;;45.35;42.75;;;12.80;99.90;;;;;;4956582;29;20039;-70
2023/10/15 04:00:35;;;;;;;43.83;41.35;;;12.70;99.90;;;;;;4955108;28;20046;-70
2023/10/15 04:03:28;;;;;;;43.45;40.63;;;12.70;99.90;;;;;;4956059;28;20054;-70
2023/10/15 04:06:00;;;;;;;42.42;39.88;;;12.70;99.90;;;;;;4955687;28;20047;-70
2023/10/15 04:08:31;;;;;;;43.15;40.85;;;12.70;99.90;;;;;;4956705;28;20047;-70
2023/10/15 04:10:58;;;;;;;44.70;42.28;;;12.70;99.90;;;;;;4955542;28;20051;-71
2023/10/15 04:13:26;;;;;;;49.22;46.40;;;12.60;99.90;;;;;;4955041;29;20035;-70
2023/10/15 04:15:55;;;;;;;50.97;47.53;;;12.60;99.90;;;;;;4968215;28;20127;-70
2023/10/15 04:18:25;;;;;;;50.17;47.30;;;12.60;99.90;;;;;;4969602;28;20047;-70
2023/10/15 04:20:51;;;;;;;49.65;46.60;;;12.50;99.90;;;;;;4972564;28;20027;-71
2023/10/15 04:23:34;;;;;;;47.03;44.35;;;12.50;99.90;;;;;;4974033;28;20395;-70
2023/10/15 04:26:07;;;;;;;47.03;44.03;;;12.50;99.90;;;;;;4967539;28;20062;-71
2023/10/15 04:28:36;;;;;;;48.85;45.72;;;12.40;99.90;;;;;;4938975;29;20058;-70
2023/10/15 04:31:17;;;;;;;46.15;43.63;;;12.40;99.90;;;;;;4954859;28;20063;-71
2023/10/15 04:33:44;;;;;;;45.28;42.38;;;12.40;99.90;;;;;;4955426;28;20059;-70
2023/10/15 04:36:10;;;;;;;45.67;42.90;;;12.40;99.90;;;;;;4955397;28;20043;-71
2023/10/15 04:38:38;;;;;;;46.08;43.08;;;12.40;99.90;;;;;;4955590;28;20039;-70
2023/10/15 04:41:04;;;;;;;45.28;42.78;;;12.40;99.90;;;;;;4955065;28;20039;-71
2023/10/15 04:43:40;;;;;;;43.72;41.10;;;12.30;99.90;;;;;;4954099;29;20039;-71
2023/10/15 04:46:07;;;;;;;44.58;41.88;;;12.30;99.90;;;;;;4962289;28;20036;-71
2023/10/15 04:48:36;;;;;;;42.08;39.53;;;12.30;99.90;;;;;;4955431;28;20058;-70
2023/10/15 04:51:11;;;;;;;41.90;39.67;;;12.20;99.90;;;;;;4955088;28;20046;-71
2023/10/15 04:53:37;;;;;;;43.40;40.95;;;12.30;99.90;;;;;;4939152;29;20051;-70
2023/10/15 04:56:04;;;;;;;44.38;41.78;;;12.20;99.90;;;;;;4955016;28;20519;-71
2023/10/15 04:58:30;;;;;;;42.28;39.80;;;12.20;99.90;;;;;;4963311;28;20027;-71
2023/10/15 05:00:58;;;;;;;43.20;40.67;;;12.20;99.90;;;;;;4958048;28;20345;-71
2023/10/15 05:03:25;;;;;;;42.90;40.38;;;12.20;99.90;;;;;;4972325;28;20058;-71
2023/10/15 05:05:51;;;;;;;42.70;40.22;;;12.20;99.90;;;;;;4969722;28;20034;-71
2023/10/15 05:08:17;;;;;;;42.05;39.17;;;12.30;99.90;;;;;;4964557;28;20031;-71
2023/10/15 05:10:44;;;;;;;43.63;41.33;;;12.20;99.90;;;;;;4961877;28;20498;-71
2023/10/15 05:13:11;;;;;;;46.97;44.35;;;12.20;99.90;;;;;;4974281;28;20051;-70
2023/10/15 05:15:38;;;;;;;43.67;41.08;;;12.20;99.90;;;;;;4963105;28;20031;-70
2023/10/15 05:18:05;;;;;;;45.60;43.03;;;12.10;99.90;;;;;;4968023;28;20039;-69
2023/10/15 05:20:31;;;;;;;46.15;43.22;;;12.10;99.90;;;;;;4973521;28;20030;-70
2023/10/15 05:22:57;;;;;;;44.40;41.90;;;12.10;99.90;;;;;;4969990;28;20028;-70
2023/10/15 05:25:23;;;;;;;42.10;39.80;;;12.00;99.90;;;;;;4956442;28;20035;-69
2023/10/15 05:27:52;;;;;;;44.40;41.67;;;12.00;99.90;;;;;;4973875;28;20034;-70
2023/10/15 05:30:19;;;;;;;45.80;42.92;;;11.90;99.90;;;;;;4971688;28;20046;-70
2023/10/15 05:32:45;;;;;;;43.28;40.80;;;11.90;99.90;;;;;;4968425;28;20046;-69
2023/10/15 05:35:12;;;;;;;44.15;41.38;;;11.90;99.90;;;;;;4973394;28;20042;-70
2023/10/15 05:37:41;;;;;;;44.28;41.67;;;11.90;99.90;;;;;;4973914;28;20026;-70
2023/10/15 05:40:08;;;;;;;44.58;41.72;;;11.90;99.90;;;;;;4970251;28;20393;-70
2023/10/15 05:42:37;;;;;;;44.42;42.10;;;11.90;99.90;;;;;;4973876;28;20055;-70
2023/10/15 05:45:06;;;;;;;43.60;41.28;;;11.80;99.90;;;;;;4967831;28;20515;-69
2023/10/15 05:47:35;;;;;;;44.53;42.00;;;11.80;99.90;;;;;;4956915;28;20499;-70
2023/10/15 05:50:04;;;;;;;46.13;43.45;;;11.70;99.90;;;;;;4973771;28;20043;-69
2023/10/15 05:52:30;;;;;;;44.08;41.40;;;11.70;99.90;;;;;;4954488;28;20051;-70
2023/10/15 05:54:56;;;;;;;40.97;38.80;;;11.70;99.90;;;;;;4954092;29;20027;-68
2023/10/15 05:57:23;;;;;;;41.00;38.53;;;11.70;99.90;;;;;;4954139;28;20050;-69
2023/10/15 05:59:49;;;;;;;39.92;37.70;;;11.70;99.90;;;;;;4954554;29;20035;-70
2023/10/15 06:02:15;;;;;;;42.55;40.28;;;11.70;99.90;;;;;;4962070;28;20050;-69
2023/10/15 06:04:43;;;;;;;44.60;42.15;;;11.70;99.90;;;;;;4973600;28;20494;-69
2023/10/15 06:07:10;;;;;;;46.10;43.47;;;11.70;99.90;;;;;;4957359;28;20043;-69
2023/10/15 06:09:36;;;;;;;43.05;40.58;;;11.60;99.90;;;;;;4953852;29;20492;-70
2023/10/15 06:12:03;;;;;;;42.85;40.50;;;11.50;99.90;;;;;;4954074;29;20054;-68
2023/10/15 06:14:29;;;;;;;42.33;39.97;;;11.60;99.90;;;;;;4971287;28;20050;-69
2023/10/15 06:16:56;;;;;;;45.05;42.53;;;11.60;99.90;;;;;;4965220;28;20415;-70
2023/10/15 06:19:22;;;;;;;42.78;40.63;;;11.60;99.90;;;;;;4954380;29;20407;-70
2023/10/15 06:21:48;;;;;;;43.70;41.20;;;11.60;99.90;;;;;;4971647;28;20495;-70
2023/10/15 06:24:14;;;;;;;42.30;40.03;;;11.50;99.90;;;;;;4971001;28;20035;-71
2023/10/15 06:26:40;;;;;;;45.00;42.47;;;11.50;99.90;;;;;;4967271;28;20380;-69
2023/10/15 06:29:06;;;;;;;41.83;39.50;;;11.50;99.90;;;;;;4962969;28;20023;-70
2023/10/15 06:31:32;;;;;;;41.75;39.47;;;11.50;99.90;;;;;;4972663;28;20050;-68
2023/10/15 06:33:58;;;;;;;44.22;41.85;;;11.50;99.90;;;;;;4973050;28;20042;-68
2023/10/15 06:36:24;;;;;;;41.85;39.50;;;11.50;99.90;;;;;;4973082;28;20027;-68
2023/10/15 06:38:51;;;;;;;41.92;39.60;;;11.40;99.90;;;;;;4972852;28;20030;-68
2023/10/15 06:41:17;;;;;;;43.22;40.70;;;11.40;99.90;;;;;;4973645;28;20027;-72
2023/10/15 06:43:43;;;;;;;43.90;41.55;;;11.40;99.90;;;;;;4972902;28;20128;-72
2023/10/15 06:46:09;;;;;;;44.53;41.95;;;11.40;99.90;;;;;;4976487;28;20030;-72
2023/10/15 06:48:35;;;;;;;41.63;39.42;;;11.40;99.90;;;;;;4974790;28;20035;-72
2023/10/15 06:51:04;;;;;;;41.35;39.03;;;11.30;99.90;;;;;;4972246;28;20051;-72
2023/10/15 06:53:31;;;;;;;39.63;37.38;;;11.40;99.90;;;;;;4974565;28;20053;-72
2023/10/15 06:55:57;;;;;;;43.05;40.70;;;11.40;99.90;;;;;;4966852;28;20132;-72
2023/10/15 06:58:23;;;;;;;39.78;37.30;;;11.50;99.90;;;;;;4974697;28;20035;-72
2023/10/15 07:00:49;;;;;;;41.90;39.58;;;11.40;99.90;;;;;;4975995;28;20054;-71
2023/10/15 07:03:15;;;;;;;42.63;40.20;;;11.50;99.90;;;;;;4963501;28;20034;-72
2023/10/15 07:05:42;;;;;;;43.65;41.17;;;11.50;99.90;;;;;;4964513;28;20046;-72
2023/10/15 07:08:08;;;;;;;43.92;41.60;;;11.50;99.90;;;;;;4957187;29;20042;-72
2023/10/15 07:10:36;;;;;;;43.92;41.60;;;11.50;99.90;;;;;;4957004;29;20484;-71
2023/10/15 07:13:03;;;;;;;43.58;41.15;;;11.50;99.90;;;;;;4956979;28;20066;-71
2023/10/15 07:15:29;;;;;;;46.67;44.10;;;11.50;99.90;;;;;;4956347;28;20043;-72
2023/10/15 07:17:55;;;;;;;46.35;43.88;;;11.60;99.90;;;;;;4956912;28;20043;-72
2023/10/15 07:20:24;;;;;;;46.35;43.45;;;11.60;99.90;;;;;;4970270;28;20503;-71
2023/10/15 07:22:50;;;;;;;47.63;45.00;;;11.60;99.90;;;;;;4976260;28;20043;-71
2023/10/15 07:25:20;;;;;;;47.50;45.03;;;11.70;99.90;;;;;;4975073;28;20050;-71
2023/10/15 07:27:48;;;;;;;55.42;52.50;;;11.90;99.90;;;;;;4975216;28;20027;-73
2023/10/15 07:30:16;;;;;;;63.92;60.42;;;12.00;99.90;;;;;;4975790;28;20070;-73
2023/10/15 07:32:45;;;;;;;50.30;47.63;;;12.20;99.90;;;;;;4963294;28;20051;-74
2023/10/15 07:35:13;;;;;;;47.58;44.88;;;12.40;99.90;;;;;;4976492;28;20054;-74
2023/10/15 07:37:43;;;;;;;36.83;34.50;;;12.70;99.90;;;;;;4976183;28;20050;-74
2023/10/15 07:40:17;;;;;;;23.75;22.10;;;12.80;99.90;;;;;;4976000;28;20049;-74
2023/10/15 07:42:44;;;;;;;21.95;20.38;;;13.00;99.90;;;;;;4976012;28;20507;-74
2023/10/15 07:45:10;;;;;;;23.10;21.48;;;13.00;99.90;;;;;;4975142;28;20030;-72
2023/10/15 07:47:37;;;;;;;23.83;22.23;;;12.90;99.90;;;;;;4975429;28;20046;-72
2023/10/15 07:50:08;;;;;;;20.80;19.50;;;13.00;99.90;;;;;;4975622;28;20035;-72
2023/10/15 07:52:34;;;;;;;25.13;23.67;;;12.80;99.90;;;;;;4975504;28;20472;-72
2023/10/15 07:55:01;;;;;;;67.20;63.55;;;13.10;99.90;;;;;;4975559;28;20031;-72
2023/10/15 07:57:27;;;;;;;77.38;73.15;;;13.50;99.90;;;;;;4975638;28;20035;-71
2023/10/15 07:59:58;;;;;;;63.17;59.85;;;13.90;99.90;;;;;;4975916;28;20034;-72
2023/10/15 08:02:25;;;;;;;38.42;36.20;;;14.20;99.90;;;;;;4973571;28;20038;-72
2023/10/15 08:04:57;;;;;;;32.30;30.40;;;14.50;99.90;;;;;;4975195;28;20487;-72
2023/10/15 08:07:23;;;;;;;34.65;32.45;;;14.50;99.90;;;;;;4956741;28;20035;-72
2023/10/15 08:09:52;;;;;;;43.65;40.78;;;14.30;99.90;;;;;;4955757;28;21676;-71
2023/10/15 08:12:18;;;;;;;40.22;37.80;;;14.20;99.90;;;;;;4955811;29;20400;-70
2023/10/15 08:14:45;;;;;;;44.05;41.45;;;14.10;99.90;;;;;;4955865;28;20065;-70
2023/10/15 08:17:13;;;;;;;30.00;28.13;;;14.20;99.90;;;;;;4955559;28;20051;-70
2023/10/15 08:19:39;;;;;;;28.90;27.00;;;14.10;99.90;;;;;;4956305;28;20046;-70
2023/10/15 08:22:06;;;;;;;50.75;47.90;;;13.90;99.90;;;;;;4974610;28;20037;-70
2023/10/15 08:24:32;;;;;;;29.77;27.73;;;13.80;99.90;;;;;;4974818;28;20031;-70
2023/10/15 08:26:58;;;;;;;31.73;29.80;;;13.90;99.90;;;;;;4974785;28;20483;-70
2023/10/15 08:29:24;;;;;;;38.60;36.30;;;14.00;99.90;;;;;;4974847;28;20023;-70
2023/10/15 08:31:51;;;;;;;46.10;43.63;;;14.00;99.90;;;;;;4974350;28;20043;-70
2023/10/15 08:34:17;;;;;;;54.50;51.33;;;13.70;99.90;;;;;;4974592;28;20045;-70
2023/10/15 08:36:43;;;;;;;44.67;42.10;;;13.70;99.90;;;;;;4961389;28;20034;-70
2023/10/15 08:39:09;;;;;;;52.35;49.42;;;13.70;99.90;;;;;;4974565;28;20038;-70
2023/10/15 08:41:40;;;;;;;46.13;43.35;;;13.70;99.90;;;;;;4957737;28;20035;-70
2023/10/15 08:44:08;;;;;;;44.45;41.90;;;13.70;99.90;;;;;;4960538;28;20019;-70
2023/10/15 08:46:39;;;;;;;32.38;30.27;;;13.80;99.90;;;;;;4961580;28;20038;-70
2023/10/15 08:49:06;;;;;;;35.30;33.38;;;13.90;99.90;;;;;;4974003;28;20027;-71
2023/10/15 08:51:34;;;;;;;32.85;30.90;;;13.90;99.90;;;;;;4974258;28;20069;-70
2023/10/15 08:54:02;;;;;;;44.85;42.35;;;13.90;99.90;;;;;;4974504;28;20030;-70
2023/10/15 08:56:33;;;;;;;46.58;43.90;;;13.90;99.90;;;;;;4954610;28;20488;-71
2023/10/15 08:58:59;;;;;;;45.80;43.03;;;13.90;99.90;;;;;;4954733;29;20483;-70
2023/10/15 09:01:26;;;;;;;39.75;37.40;;;14.00;99.90;;;;;;4953042;28;20039;-70
2023/10/15 09:03:52;;;;;;;38.10;35.95;;;14.00;99.90;;;;;;4960511;28;20034;-70
2023/10/15 09:06:22;;;;;;;38.63;36.47;;;14.00;99.90;;;;;;4963255;28;20039;-70
2023/10/15 09:08:50;;;;;;;36.70;34.33;;;14.10;99.90;;;;;;4971290;28;20042;-70
2023/10/15 09:11:16;;;;;;;38.08;36.08;;;14.20;99.90;;;;;;4972794;28;20038;-70
2023/10/15 09:13:48;;;;;;;33.45;31.55;;;14.20;99.90;;;;;;4961473;28;20709;-71
2023/10/15 09:16:14;;;;;;;34.72;32.60;;;14.20;99.90;;;;;;4969435;28;20487;-71
2023/10/15 09:18:43;;;;;;;37.42;35.25;;;14.30;99.90;;;;;;4969130;28;20046;-71
2023/10/15 09:21:09;;;;;;;45.72;43.30;;;14.30;99.90;;;;;;4962845;28;20046;-71
2023/10/15 09:23:36;;;;;;;37.92;35.55;;;14.30;99.90;;;;;;4966366;28;20035;-71
2023/10/15 09:26:06;;;;;;;39.60;37.40;;;14.30;99.90;;;;;;4965591;28;20035;-71
2023/10/15 09:28:33;;;;;;;41.88;39.55;;;14.30;99.90;;;;;;4970901;28;20035;-71
2023/10/15 09:31:05;;;;;;;36.55;34.45;;;14.40;99.90;;;;;;4971137;28;20035;-71
2023/10/15 09:33:32;;;;;;;36.95;34.83;;;14.20;99.90;;;;;;4972533;28;20053;-71
2023/10/15 09:35:58;;;;;;;45.70;43.10;;;14.30;99.90;;;;;;4971003;28;20379;-71
2023/10/15 09:38:25;;;;;;;42.97;40.60;;;14.30;99.90;;;;;;4966804;28;20070;-71
2023/10/15 09:40:56;;;;;;;66.00;62.55;;;14.40;99.90;;;;;;4973831;28;20039;-71
2023/10/15 09:43:24;;;;;;;;;;;14.40;99.90;;;;;;4973817;28;20047;-71
2023/10/15 09:45:54;;;;;;;42.17;39.85;;;14.50;99.90;;;;;;4969648;28;19918;-71
2023/10/15 09:48:24;;;;;;;49.15;46.17;;;14.50;99.90;;;;;;4962068;28;20036;-71
2023/10/15 09:50:52;;;;;;;67.75;64.15;;;14.50;99.90;;;;;;4961039;28;20452;-71
2023/10/15 09:53:21;;;;;;;63.38;60.05;;;14.50;99.90;;;;;;4971655;28;20053;-71
2023/10/15 09:55:48;;;;;;;63.00;59.55;;;14.50;99.90;;;;;;4960384;28;20023;-70
2023/10/15 09:58:15;;;;;;;68.20;64.47;;;14.40;99.90;;;;;;4972568;28;20369;-71
2023/10/15 10:03:38;;;;;;;62.40;59.03;;;14.40;99.90;;;;;;4976294;28;20034;-71
2023/10/15 10:06:32;;;;;;;43.72;41.00;;;14.50;99.90;;;;;;4964288;28;20027;-71
2023/10/15 10:09:09;;;;;;;63.33;60.03;;;14.60;99.90;;;;;;4955294;28;20038;-71
2023/10/15 10:11:43;;;;;;;63.17;59.83;;;14.80;99.90;;;;;;4953840;28;20055;-71
2023/10/15 10:14:23;;;;;;;67.43;63.90;;;14.80;99.90;;;;;;4953914;28;20040;-71
2023/10/15 10:16:50;;;;;;;65.30;62.03;;;14.80;99.90;;;;;;4952960;28;20047;-71
2023/10/15 10:19:17;;;;;;;53.20;50.10;;;14.90;99.90;;;;;;4958081;28;20031;-71
2023/10/15 10:21:46;;;;;;;66.65;63.08;;;14.90;99.90;;;;;;4966419;28;20074;-71
2023/10/15 10:24:16;;;;;;;46.03;43.53;;;14.90;99.90;;;;;;4972264;28;20046;-71
2023/10/15 10:26:42;;;;;;;57.70;54.47;;;14.80;99.90;;;;;;4957261;28;20310;-72
2023/10/15 10:29:11;;;;;;;33.88;31.83;;;14.80;99.90;;;;;;4958970;28;20035;-73
2023/10/15 10:31:39;;;;;;;29.60;27.67;;;14.80;99.90;;;;;;4964040;28;20027;-73
2023/10/15 10:34:06;;;;;;;42.42;40.03;;;14.80;99.90;;;;;;4963460;28;20034;-72
2023/10/15 10:36:38;;;;;;;34.42;32.40;;;14.80;99.90;;;;;;4957741;28;20043;-72
2023/10/15 10:39:07;;;;;;;39.50;37.20;;;14.90;99.90;;;;;;4968719;28;20058;-72
2023/10/15 10:41:40;;;;;;;66.18;62.42;;;15.00;99.90;;;;;;4976524;28;20034;-72
2023/10/15 10:44:23;;;;;;;71.05;67.20;;;15.00;99.90;;;;;;4956031;29;20039;-73
2023/10/15 10:46:52;;;;;;;62.92;59.42;;;15.10;99.90;;;;;;4957282;28;20503;-73
2023/10/15 10:49:28;;;;;;;61.97;58.78;;;15.10;99.90;;;;;;4957627;28;20046;-73
2023/10/15 10:52:04;;;;;;;38.50;36.28;;;15.20;99.90;;;;;;4974652;28;20035;-72
2023/10/15 10:54:30;;;;;;;33.50;31.58;;;15.10;99.90;;;;;;4965298;28;20039;-73
2023/10/15 10:56:58;;;;;;;39.47;37.38;;;15.10;99.90;;;;;;4957187;28;20816;-72
2023/10/15 10:59:24;;;;;;;42.60;40.20;;;15.30;99.90;;;;;;4960406;28;20026;-69
2023/10/15 11:01:50;;;;;;;40.08;37.50;;;15.20;99.90;;;;;;4974927;28;20034;-73
2023/10/15 11:04:16;;;;;;;39.47;37.10;;;15.30;99.90;;;;;;4976055;28;20436;-73
2023/10/15 11:06:45;;;;;;;65.55;62.25;;;15.30;99.90;;;;;;4963473;28;20027;-72
2023/10/15 11:09:20;;;;;;;58.15;55.22;;;15.40;99.90;;;;;;4957404;28;20043;-72
2023/10/15 11:11:51;;;;;;;71.78;68.30;;;15.40;99.90;;;;;;4956503;29;20039;-73
2023/10/15 11:14:20;;;;;;;97.35;92.57;;;15.40;99.90;;;;;;4956338;28;20039;-73
2023/10/15 11:16:46;;;;;;;86.80;82.30;;;15.30;99.90;;;;;;4956022;28;20056;-72
2023/10/15 11:19:16;;;;;;;120.43;114.15;;;15.30;99.90;;;;;;4957089;29;20028;-72
2023/10/15 11:21:42;;;;;;;157.70;149.82;;;15.40;99.90;;;;;;4956309;29;20031;-72
2023/10/15 11:24:09;;;;;;;166.30;157.95;;;15.40;99.90;;;;;;4956683;28;20373;-73
2023/10/15 11:26:42;;;;;;;195.57;185.95;;;15.50;99.90;;;;;;4955106;28;20031;-72
2023/10/15 11:29:27;;;;;;;140.80;133.90;;;15.60;99.90;;;;;;4954065;28;20043;-73
2023/10/15 11:31:58;;;;;;;133.68;127.13;;;15.50;99.90;;;;;;4973043;28;20054;-72
2023/10/15 11:34:25;;;;;;;111.60;105.97;;;15.50;99.90;;;;;;4962844;28;20066;-71
2023/10/15 11:36:55;;;;;;;126.97;120.78;;;15.40;99.90;;;;;;4956627;28;20042;-71
2023/10/15 11:42:19;;;;;;;142.43;135.57;;;15.50;99.90;;;;;;4964918;28;20045;-71
2023/10/15 11:44:45;;;;;;;146.85;139.52;;;15.60;99.90;;;;;;4954868;29;20055;-71
2023/10/15 11:47:12;;;;;;;169.98;161.65;;;15.60;99.90;;;;;;4954635;28;20058;-71
2023/10/15 11:49:38;;;;;;;157.05;149.07;;;15.80;99.90;;;;;;4956865;28;20047;-71
2023/10/15 11:52:11;;;;;;;182.25;173.55;;;16.00;99.90;;;;;;4954811;29;20047;-71
2023/10/15 11:54:43;;;;;;;173.80;165.15;;;16.00;99.90;;;;;;4956584;28;20035;-71
2023/10/15 11:57:16;;;;;;;170.75;162.38;;;16.10;99.90;;;;;;4975237;28;20043;-71
2023/10/15 11:59:43;;;;;;;147.88;140.77;;;16.00;99.90;;;;;;4975163;28;20047;-71
2023/10/15 12:02:11;;;;;;;122.30;116.35;;;15.90;99.90;;;;;;4974452;28;20488;-71
2023/10/15 12:04:38;;;;;;;111.30;105.90;;;15.90;99.90;;;;;;4975291;28;20492;-71
2023/10/15 12:07:06;;;;;;;119.93;114.03;;;15.90;99.90;;;;;;4959257;28;20381;-71
2023/10/15 12:09:32;;;;;;;101.30;96.28;;;15.90;99.90;;;;;;4956204;28;20492;-71
2023/10/15 12:12:04;;;;;;;108.57;103.25;;;15.90;99.90;;;;;;4955767;28;20048;-71
2023/10/15 12:14:30;;;;;;;101.85;96.68;;;16.00;99.90;;;;;;4955830;29;20511;-72
2023/10/15 12:16:56;;;;;;;96.00;91.25;;;16.10;99.90;;;;;;4955001;28;20043;-70
2023/10/15 12:19:23;;;;;;;62.72;59.53;;;16.20;99.90;;;;;;4955723;29;20397;-70
2023/10/15 12:21:50;;;;;;;72.72;69.10;;;16.10;99.90;;;;;;4960367;28;20035;-71
2023/10/15 12:24:17;;;;;;;70.55;67.05;;;16.10;99.90;;;;;;4974758;28;20408;-71
2023/10/15 12:26:43;;;;;;;60.55;57.15;;;16.00;99.90;;;;;;4974576;28;20062;-70
2023/10/15 12:29:09;;;;;;;71.10;67.53;;;15.90;99.30;;;;;;4974862;28;20030;-71
2023/10/15 12:31:38;;;;;;;63.05;59.70;;;16.00;99.80;;;;;;4974140;28;20035;-71
2023/10/15 12:34:04;;;;;;;69.72;66.22;;;16.10;99.20;;;;;;4974623;28;20047;-71
2023/10/15 12:36:30;;;;;;;82.18;78.07;;;16.20;99.90;;;;;;4974509;28;20038;-71
2023/10/15 12:38:56;;;;;;;73.28;69.43;;;16.30;99.90;;;;;;4974681;28;20388;-71
2023/10/15 12:41:25;;;;;;;77.13;73.38;;;16.30;99.80;;;;;;4973680;28;20064;-70
2023/10/15 12:43:58;;;;;;;91.03;86.35;;;16.20;99.80;;;;;;4974844;28;20047;-71
2023/10/15 12:46:29;;;;;;;105.20;99.60;;;16.00;99.90;;;;;;4974423;28;20035;-71
2023/10/15 12:48:56;;;;;;;119.38;113.35;;;15.70;99.90;;;;;;4974858;28;20047;-71
2023/10/15 12:51:23;;;;;;;123.55;117.07;;;15.80;99.90;;;;;;4974365;28;20400;-72
2023/10/15 12:53:49;;;;;;;99.18;94.32;;;15.80;99.90;;;;;;4973965;28;20054;-72